createdAt,value
2022-10-01T00:00:59.765Z,12.13
2022-10-01T00:02:00.204Z,12.12
2022-10-01T00:03:00.157Z,12.05
2022-10-01T00:04:00.325Z,12.15
2022-10-01T00:05:00.522Z,12.11
2022-10-01T00:06:00.675Z,12.08
2022-10-01T00:07:00.854Z,12.09
2022-10-01T00:08:01.030Z,12.09
2022-10-01T00:09:01.199Z,12.16
2022-10-01T00:10:01.583Z,12.09
2022-10-01T00:11:01.496Z,12.11
2022-10-01T00:12:01.621Z,12.05
2022-10-01T00:13:01.774Z,12.12
2022-10-01T00:14:01.935Z,12.06
2022-10-01T00:15:05.929Z,12.16
2022-10-01T00:16:03.246Z,12.23
2022-10-01T00:17:02.554Z,12.12
2022-10-01T00:18:03.575Z,12.19
2022-10-01T00:19:02.832Z,12.20
2022-10-01T00:20:10.721Z,12.20
2022-10-01T00:21:05.184Z,12.19
2022-10-01T00:22:04.075Z,12.23
2022-10-01T00:23:03.540Z,12.13
2022-10-01T00:24:04.082Z,12.23
2022-10-01T00:25:03.833Z,12.21
2022-10-01T00:26:03.993Z,12.20
2022-10-01T00:27:05.580Z,12.23
2022-10-01T00:28:04.335Z,12.19
2022-10-01T00:29:04.492Z,12.11
2022-10-01T00:30:05.574Z,12.13
2022-10-01T00:31:04.893Z,12.15
2022-10-01T00:32:05.012Z,12.15
2022-10-01T00:33:06.070Z,12.11
2022-10-01T00:34:05.302Z,12.13
2022-10-01T00:35:05.459Z,12.11
2022-10-01T00:36:06.084Z,12.13
2022-10-01T00:37:05.845Z,12.12
2022-10-01T00:38:06.025Z,12.16
2022-10-01T00:39:06.165Z,12.16
2022-10-01T00:40:07.073Z,12.11
2022-10-01T00:41:06.586Z,12.08
2022-10-01T00:42:06.601Z,12.11
2022-10-01T00:43:06.808Z,12.12
2022-10-01T00:44:06.957Z,12.21
2022-10-01T00:45:07.098Z,12.21
2022-10-01T00:46:08.111Z,12.16
2022-10-01T00:47:07.362Z,12.08
2022-10-01T00:48:07.515Z,12.08
2022-10-01T00:49:07.656Z,12.08
2022-10-01T00:50:07.806Z,12.11
2022-10-01T00:51:08.583Z,12.20
2022-10-01T00:52:08.062Z,12.09
2022-10-01T00:53:08.592Z,12.12
2022-10-01T00:54:09.077Z,12.16
2022-10-01T00:55:08.597Z,12.08
2022-10-01T00:56:08.735Z,12.11
2022-10-01T00:57:08.859Z,12.19
2022-10-01T00:58:09.012Z,12.09
2022-10-01T00:59:09.159Z,12.09
2022-10-01T01:00:09.592Z,12.09
2022-10-01T01:01:10.161Z,12.04
2022-10-01T01:02:10.139Z,12.09
2022-10-01T01:03:09.773Z,12.12
2022-10-01T01:04:10.576Z,12.11
2022-10-01T01:05:10.134Z,12.12
2022-10-01T01:06:11.079Z,12.08
2022-10-01T01:07:10.442Z,12.11
2022-10-01T01:08:10.689Z,12.13
2022-10-01T01:09:10.850Z,12.11
2022-10-01T01:10:10.998Z,12.09
2022-10-01T01:11:11.122Z,12.13
2022-10-01T01:12:11.389Z,12.11
2022-10-01T01:13:11.544Z,12.06
2022-10-01T01:14:11.690Z,11.96
2022-10-01T01:15:11.849Z,12.11
2022-10-01T01:16:12.634Z,12.08
2022-10-01T01:17:12.161Z,12.04
2022-10-01T01:18:12.335Z,12.06
2022-10-01T01:19:12.593Z,12.06
2022-10-01T01:20:12.609Z,12.08
2022-10-01T01:21:12.747Z,12.11
2022-10-01T01:22:12.897Z,12.11
2022-10-01T01:23:13.585Z,12.08
2022-10-01T01:24:13.241Z,12.13
2022-10-01T01:25:13.406Z,12.06
2022-10-01T01:26:13.598Z,12.01
2022-10-01T01:27:14.585Z,12.02
2022-10-01T01:28:14.095Z,11.93
2022-10-01T01:29:15.126Z,11.93
2022-10-01T01:30:14.216Z,12.01
2022-10-01T01:31:14.423Z,11.90
2022-10-01T01:32:15.082Z,11.99
2022-10-01T01:33:15.691Z,12.09
2022-10-01T01:34:14.920Z,11.99
2022-10-01T01:35:15.086Z,12.09
2022-10-01T01:36:15.225Z,12.13
2022-10-01T01:37:15.380Z,12.13
2022-10-01T01:38:15.552Z,12.05
2022-10-01T01:39:15.707Z,12.01
2022-10-01T01:40:15.884Z,11.96
2022-10-01T01:41:16.587Z,11.97
2022-10-01T01:42:16.211Z,12.02
2022-10-01T01:43:16.351Z,11.97
2022-10-01T01:44:16.488Z,12.11
2022-10-01T01:45:17.105Z,12.08
2022-10-01T01:46:17.758Z,12.04
2022-10-01T01:47:17.021Z,11.96
2022-10-01T01:48:17.193Z,12.02
2022-10-01T01:49:17.355Z,11.87
2022-10-01T01:50:17.521Z,11.85
2022-10-01T01:51:17.724Z,11.78
2022-10-01T01:52:17.897Z,11.68
2022-10-01T01:53:18.087Z,11.57
2022-10-01T01:54:19.119Z,11.61
2022-10-01T01:55:18.395Z,11.44
2022-10-01T01:56:18.588Z,11.50
2022-10-01T01:57:18.795Z,11.39
2022-10-01T01:58:18.921Z,11.36
2022-10-01T01:59:19.066Z,11.24
2022-10-01T02:00:20.094Z,11.29
2022-10-01T02:01:20.128Z,11.16
2022-10-01T02:02:19.725Z,11.17
2022-10-01T02:03:19.905Z,11.17
2022-10-01T02:04:20.046Z,11.20
2022-10-01T02:05:20.209Z,11.14
2022-10-01T02:06:20.355Z,11.03
2022-10-01T02:07:20.614Z,11.10
2022-10-01T02:08:20.631Z,10.99
2022-10-01T02:09:20.775Z,10.96
2022-10-01T02:10:20.947Z,10.95
2022-10-01T02:11:21.105Z,10.86
2022-10-01T02:12:21.614Z,10.88
2022-10-01T02:13:21.352Z,10.89
2022-10-01T02:14:21.508Z,10.76
2022-10-01T02:15:21.626Z,10.63
2022-10-01T02:16:21.934Z,10.73
2022-10-01T02:17:22.118Z,10.71
2022-10-01T02:18:22.233Z,10.71
2022-10-01T02:19:22.355Z,10.71
2022-10-01T02:20:22.480Z,10.66
2022-10-01T02:21:23.603Z,10.71
2022-10-01T02:22:23.827Z,10.62
2022-10-01T02:23:23.599Z,10.63
2022-10-01T02:24:23.215Z,10.63
2022-10-01T02:25:23.342Z,10.65
2022-10-01T02:26:23.493Z,10.51
2022-10-01T02:27:23.629Z,10.44
2022-10-01T02:28:23.839Z,10.62
2022-10-01T02:29:24.009Z,10.55
2022-10-01T02:30:24.159Z,10.53
2022-10-01T02:31:24.363Z,10.65
2022-10-01T02:32:24.619Z,10.59
2022-10-01T02:33:24.622Z,10.42
2022-10-01T02:34:24.757Z,10.44
2022-10-01T02:35:24.933Z,10.62
2022-10-01T02:36:25.106Z,10.51
2022-10-01T02:37:25.278Z,10.44
2022-10-01T02:38:26.109Z,10.58
2022-10-01T02:39:25.630Z,10.43
2022-10-01T02:40:25.772Z,10.65
2022-10-01T02:41:26.617Z,10.59
2022-10-01T02:42:26.135Z,10.42
2022-10-01T02:43:26.279Z,10.60
2022-10-01T02:44:26.414Z,10.62
2022-10-01T02:45:26.758Z,10.47
2022-10-01T02:46:26.727Z,10.59
2022-10-01T02:47:26.906Z,10.62
2022-10-01T02:48:27.118Z,10.47
2022-10-01T02:49:30.677Z,10.51
2022-10-01T02:50:28.492Z,10.55
2022-10-01T02:51:27.672Z,10.62
2022-10-01T02:52:27.822Z,10.46
2022-10-01T02:53:28.608Z,10.47
2022-10-01T02:54:28.128Z,10.56
2022-10-01T02:55:28.284Z,10.58
2022-10-01T02:56:28.625Z,10.59
2022-10-01T02:57:29.124Z,10.53
2022-10-01T02:58:28.883Z,10.65
2022-10-01T02:59:29.061Z,10.63
2022-10-01T03:00:29.194Z,10.59
2022-10-01T03:01:30.170Z,10.62
2022-10-01T03:02:29.544Z,10.58
2022-10-01T03:03:29.605Z,10.55
2022-10-01T03:04:30.653Z,10.55
2022-10-01T03:05:29.915Z,10.60
2022-10-01T03:06:30.075Z,10.66
2022-10-01T03:07:31.142Z,10.53
2022-10-01T03:08:30.409Z,10.53
2022-10-01T03:09:30.585Z,10.55
2022-10-01T03:10:30.732Z,10.59
2022-10-01T03:11:31.296Z,10.52
2022-10-01T03:12:31.137Z,10.52
2022-10-01T03:13:31.626Z,10.65
2022-10-01T03:14:31.497Z,10.63
2022-10-01T03:15:31.660Z,10.47
2022-10-01T03:16:32.614Z,10.55
2022-10-01T03:17:31.979Z,10.46
2022-10-01T03:18:33.123Z,10.44
2022-10-01T03:19:33.135Z,10.52
2022-10-01T03:20:32.524Z,10.55
2022-10-01T03:21:33.046Z,10.52
2022-10-01T03:22:32.893Z,10.40
2022-10-01T03:23:33.612Z,10.39
2022-10-01T03:24:33.251Z,10.40
2022-10-01T03:25:33.422Z,10.47
2022-10-01T03:26:33.557Z,10.44
2022-10-01T03:27:34.617Z,10.44
2022-10-01T03:28:33.874Z,10.47
2022-10-01T03:29:34.045Z,10.34
2022-10-01T03:30:35.120Z,10.43
2022-10-01T03:31:34.756Z,10.37
2022-10-01T03:32:34.607Z,10.33
2022-10-01T03:33:35.119Z,10.36
2022-10-01T03:34:36.618Z,10.34
2022-10-01T03:35:35.106Z,10.33
2022-10-01T03:36:35.265Z,10.39
2022-10-01T03:37:35.476Z,10.37
2022-10-01T03:38:35.620Z,10.33
2022-10-01T03:39:35.788Z,10.32
2022-10-01T03:40:35.951Z,10.33
2022-10-01T03:41:36.381Z,10.34
2022-10-01T03:42:37.131Z,10.32
2022-10-01T03:43:36.654Z,10.42
2022-10-01T03:44:36.575Z,10.43
2022-10-01T03:45:37.655Z,10.34
2022-10-01T03:46:36.942Z,10.44
2022-10-01T03:47:37.088Z,10.40
2022-10-01T03:48:37.252Z,10.40
2022-10-01T03:49:38.150Z,10.36
2022-10-01T03:50:37.695Z,10.43
2022-10-01T03:51:38.129Z,10.36
2022-10-01T03:52:38.102Z,10.34
2022-10-01T03:53:38.253Z,10.37
2022-10-01T03:54:38.399Z,10.34
2022-10-01T03:55:40.123Z,10.34
2022-10-01T03:56:38.771Z,10.40
2022-10-01T03:57:39.627Z,10.37
2022-10-01T03:58:39.135Z,10.36
2022-10-01T03:59:39.339Z,10.40
2022-10-01T04:00:39.496Z,10.42
2022-10-01T04:01:40.177Z,10.42
2022-10-01T04:02:40.708Z,10.30
2022-10-01T04:03:40.103Z,10.34
2022-10-01T04:04:40.302Z,10.34
2022-10-01T04:05:40.468Z,10.43
2022-10-01T04:06:40.679Z,10.39
2022-10-01T04:07:40.878Z,10.46
2022-10-01T04:08:41.059Z,10.42
2022-10-01T04:09:41.242Z,10.47
2022-10-01T04:10:41.471Z,10.51
2022-10-01T04:11:41.652Z,10.47
2022-10-01T04:12:41.832Z,10.37
2022-10-01T04:13:41.981Z,10.44
2022-10-01T04:14:42.130Z,10.40
2022-10-01T04:15:42.284Z,10.37
2022-10-01T04:16:42.450Z,10.52
2022-10-01T04:17:45.827Z,10.43
2022-10-01T04:18:44.631Z,10.42
2022-10-01T04:19:43.629Z,10.52
2022-10-01T04:20:43.005Z,10.44
2022-10-01T04:21:43.647Z,10.47
2022-10-01T04:22:43.427Z,10.47
2022-10-01T04:23:43.582Z,10.43
2022-10-01T04:24:44.631Z,10.52
2022-10-01T04:25:44.634Z,10.44
2022-10-01T04:26:44.005Z,10.47
2022-10-01T04:27:44.230Z,10.51
2022-10-01T04:28:44.289Z,10.42
2022-10-01T04:29:44.448Z,10.44
2022-10-01T04:30:44.598Z,10.46
2022-10-01T04:31:44.821Z,10.42
2022-10-01T04:32:45.017Z,10.40
2022-10-01T04:33:45.168Z,10.39
2022-10-01T04:34:45.319Z,10.42
2022-10-01T04:35:46.136Z,10.40
2022-10-01T04:36:46.155Z,10.42
2022-10-01T04:37:45.826Z,10.37
2022-10-01T04:38:45.995Z,10.37
2022-10-01T04:39:46.136Z,10.34
2022-10-01T04:40:47.134Z,10.37
2022-10-01T04:41:47.137Z,10.37
2022-10-01T04:42:46.667Z,10.39
2022-10-01T04:43:46.807Z,10.40
2022-10-01T04:44:47.635Z,10.36
2022-10-01T04:45:47.147Z,10.37
2022-10-01T04:46:47.320Z,10.39
2022-10-01T04:47:47.533Z,10.39
2022-10-01T04:48:47.683Z,10.32
2022-10-01T04:49:47.825Z,10.39
2022-10-01T04:50:47.978Z,10.33
2022-10-01T04:51:48.162Z,10.42
2022-10-01T04:52:48.331Z,10.40
2022-10-01T04:53:48.502Z,10.51
2022-10-01T04:54:48.672Z,10.56
2022-10-01T04:55:48.854Z,10.55
2022-10-01T04:56:49.639Z,10.52
2022-10-01T04:57:49.648Z,10.59
2022-10-01T04:58:49.433Z,10.53
2022-10-01T04:59:50.140Z,10.56
2022-10-01T05:00:49.852Z,10.59
2022-10-01T05:01:50.694Z,10.53
2022-10-01T05:02:50.159Z,10.52
2022-10-01T05:03:50.298Z,10.63
2022-10-01T05:04:50.457Z,10.58
2022-10-01T05:05:50.650Z,10.56
2022-10-01T05:06:50.820Z,10.59
2022-10-01T05:07:50.973Z,10.52
2022-10-01T05:08:51.137Z,10.62
2022-10-01T05:09:51.286Z,10.63
2022-10-01T05:10:51.455Z,10.51
2022-10-01T05:11:52.235Z,10.62
2022-10-01T05:12:52.669Z,10.59
2022-10-01T05:13:51.929Z,10.70
2022-10-01T05:14:52.113Z,10.66
2022-10-01T05:15:52.505Z,10.68
2022-10-01T05:16:52.386Z,10.62
2022-10-01T05:17:52.675Z,10.78
2022-10-01T05:18:52.710Z,10.63
2022-10-01T05:19:52.881Z,10.66
2022-10-01T05:20:53.028Z,10.68
2022-10-01T05:21:54.141Z,10.80
2022-10-01T05:22:53.450Z,10.74
2022-10-01T05:23:53.614Z,10.78
2022-10-01T05:24:54.642Z,10.70
2022-10-01T05:25:54.647Z,10.70
2022-10-01T05:26:54.162Z,10.74
2022-10-01T05:27:54.690Z,10.84
2022-10-01T05:28:55.146Z,10.74
2022-10-01T05:29:55.156Z,10.81
2022-10-01T05:30:54.812Z,10.83
2022-10-01T05:31:54.992Z,10.84
2022-10-01T05:32:55.164Z,10.88
2022-10-01T05:33:55.283Z,10.96
2022-10-01T05:34:55.660Z,10.84
2022-10-01T05:35:55.662Z,10.95
2022-10-01T05:36:56.646Z,10.96
2022-10-01T05:37:55.977Z,10.94
2022-10-01T05:38:56.099Z,10.95
2022-10-01T05:39:56.237Z,10.95
2022-10-01T05:40:56.335Z,10.95
2022-10-01T05:41:56.658Z,10.88
2022-10-01T05:42:56.622Z,10.86
2022-10-01T05:43:56.865Z,10.84
2022-10-01T05:44:57.106Z,10.94
2022-10-01T05:45:57.284Z,11.01
2022-10-01T05:46:57.668Z,11.02
2022-10-01T05:47:57.661Z,11.03
2022-10-01T05:48:57.788Z,11.01
2022-10-01T05:50:32.081Z,11.03
2022-10-01T05:50:58.057Z,11.07
2022-10-01T05:51:58.701Z,11.09
2022-10-01T05:52:58.697Z,11.06
2022-10-01T05:53:58.434Z,11.16
2022-10-01T05:54:58.779Z,11.16
2022-10-01T05:55:58.807Z,11.25
2022-10-01T05:56:58.953Z,11.14
2022-10-01T05:57:59.202Z,11.24
2022-10-01T05:58:59.319Z,11.19
2022-10-01T05:59:59.452Z,11.21
2022-10-01T06:00:59.589Z,11.25
2022-10-01T06:02:00.004Z,11.21
2022-10-01T06:03:00.181Z,11.16
2022-10-01T06:04:00.211Z,11.21
2022-10-01T06:05:00.371Z,11.17
2022-10-01T06:06:00.493Z,11.21
2022-10-01T06:07:01.695Z,11.14
2022-10-01T06:08:00.948Z,11.16
2022-10-01T06:09:01.083Z,11.07
2022-10-01T06:10:01.200Z,11.10
2022-10-01T06:11:01.428Z,11.10
2022-10-01T06:12:01.666Z,11.13
2022-10-01T06:13:02.717Z,11.11
2022-10-01T06:14:02.086Z,11.14
2022-10-01T06:15:03.202Z,11.20
2022-10-01T06:16:02.456Z,11.11
2022-10-01T06:17:02.628Z,11.19
2022-10-01T06:18:02.754Z,11.24
2022-10-01T06:19:02.985Z,11.25
2022-10-01T06:20:03.244Z,11.19
2022-10-01T06:21:03.351Z,11.20
2022-10-01T06:22:04.192Z,11.21
2022-10-01T06:23:03.649Z,11.17
2022-10-01T06:24:03.889Z,11.19
2022-10-01T06:25:04.053Z,11.24
2022-10-01T06:26:04.180Z,11.17
2022-10-01T06:27:05.217Z,11.16
2022-10-01T06:28:04.491Z,11.20
2022-10-01T06:29:05.212Z,11.14
2022-10-01T06:30:04.858Z,11.17
2022-10-01T06:31:05.008Z,11.17
2022-10-01T06:32:05.265Z,11.19
2022-10-01T06:33:06.205Z,11.17
2022-10-01T06:34:05.586Z,11.27
2022-10-01T06:35:05.741Z,11.29
2022-10-01T06:36:05.901Z,11.29
2022-10-01T06:37:06.039Z,11.39
2022-10-01T06:38:06.179Z,11.36
2022-10-01T06:39:06.361Z,11.28
2022-10-01T06:40:06.526Z,11.35
2022-10-01T06:41:06.709Z,11.24
2022-10-01T06:42:06.864Z,11.28
2022-10-01T06:43:07.702Z,11.24
2022-10-01T06:44:07.183Z,11.19
2022-10-01T06:45:07.363Z,11.31
2022-10-01T06:46:08.243Z,11.31
2022-10-01T06:47:07.709Z,11.27
2022-10-01T06:48:08.701Z,11.35
2022-10-01T06:49:08.063Z,11.36
2022-10-01T06:50:09.187Z,11.25
2022-10-01T06:51:08.432Z,11.35
2022-10-01T06:52:08.562Z,11.27
2022-10-01T06:53:08.697Z,11.24
2022-10-01T06:54:08.837Z,11.28
2022-10-01T06:55:12.036Z,11.31
2022-10-01T06:56:10.227Z,11.36
2022-10-01T06:57:09.456Z,11.35
2022-10-01T06:58:09.616Z,11.19
2022-10-01T06:59:10.213Z,11.28
2022-10-01T07:00:10.705Z,11.34
2022-10-01T07:01:10.207Z,11.28
2022-10-01T07:02:10.453Z,11.34
2022-10-01T07:03:10.505Z,11.27
2022-10-01T07:04:10.731Z,11.34
2022-10-01T07:05:10.866Z,11.21
2022-10-01T07:06:11.705Z,11.35
2022-10-01T07:07:11.182Z,11.19
2022-10-01T07:08:11.323Z,11.24
2022-10-01T07:09:11.453Z,11.29
2022-10-01T07:10:11.585Z,11.32
2022-10-01T07:11:12.706Z,11.35
2022-10-01T07:12:12.710Z,11.28
2022-10-01T07:13:12.077Z,11.32
2022-10-01T07:14:12.200Z,11.34
2022-10-01T07:15:12.435Z,11.34
2022-10-01T07:16:12.704Z,11.29
2022-10-01T07:17:12.875Z,11.21
2022-10-01T07:18:13.226Z,11.31
2022-10-01T07:19:13.241Z,11.29
2022-10-01T07:20:13.721Z,11.36
2022-10-01T07:21:13.721Z,11.39
2022-10-01T07:22:14.708Z,11.34
2022-10-01T07:23:13.941Z,11.35
2022-10-01T07:24:14.111Z,11.39
2022-10-01T07:25:15.216Z,11.34
2022-10-01T07:26:15.209Z,11.34
2022-10-01T07:27:14.546Z,11.41
2022-10-01T07:28:14.800Z,11.43
2022-10-01T07:29:14.988Z,11.41
2022-10-01T07:30:15.112Z,11.49
2022-10-01T07:31:15.401Z,11.47
2022-10-01T07:32:16.211Z,11.49
2022-10-01T07:33:16.212Z,11.46
2022-10-01T07:34:15.829Z,11.53
2022-10-01T07:35:15.969Z,11.52
2022-10-01T07:36:16.133Z,11.47
2022-10-01T07:37:16.255Z,11.52
2022-10-01T07:38:17.224Z,11.59
2022-10-01T07:39:16.592Z,11.59
2022-10-01T07:40:16.744Z,11.65
2022-10-01T07:41:16.910Z,11.62
2022-10-01T07:42:17.711Z,11.62
2022-10-01T07:43:17.199Z,11.65
2022-10-01T07:44:17.340Z,11.68
2022-10-01T07:45:17.479Z,11.71
2022-10-01T07:46:17.779Z,11.85
2022-10-01T07:47:18.719Z,11.83
2022-10-01T07:48:17.958Z,11.85
2022-10-01T07:49:18.718Z,11.78
2022-10-01T07:50:18.329Z,11.94
2022-10-01T07:51:18.478Z,11.94
2022-10-01T07:52:18.629Z,11.93
2022-10-01T07:53:19.248Z,11.89
2022-10-01T07:54:18.888Z,11.97
2022-10-01T07:55:19.039Z,12.01
2022-10-01T07:56:19.718Z,12.06
2022-10-01T07:57:20.216Z,11.94
2022-10-01T07:58:19.497Z,11.96
2022-10-01T07:59:19.661Z,11.96
2022-10-01T08:00:19.798Z,12.05
2022-10-01T08:01:19.990Z,11.94
2022-10-01T08:02:20.137Z,11.93
2022-10-01T08:03:20.357Z,11.99
2022-10-01T08:04:20.527Z,11.99
2022-10-01T08:05:20.704Z,11.94
2022-10-01T08:06:25.193Z,11.87
2022-10-01T08:07:21.966Z,11.82
2022-10-01T08:08:21.723Z,11.75
2022-10-01T08:09:21.351Z,11.75
2022-10-01T08:10:21.480Z,11.75
2022-10-01T08:11:21.610Z,11.70
2022-10-01T08:12:21.741Z,11.82
2022-10-01T08:13:22.724Z,11.72
2022-10-01T08:14:22.238Z,11.78
2022-10-01T08:15:22.262Z,11.77
2022-10-01T08:16:23.260Z,11.89
2022-10-01T08:17:26.051Z,11.89
2022-10-01T08:18:24.778Z,11.75
2022-10-01T08:19:22.984Z,11.80
2022-10-01T08:20:23.187Z,11.90
2022-10-01T08:21:24.250Z,11.96
2022-10-01T08:22:23.488Z,11.94
2022-10-01T08:23:23.597Z,11.93
2022-10-01T08:24:24.723Z,11.97
2022-10-01T08:25:24.233Z,12.08
2022-10-01T08:26:25.227Z,12.06
2022-10-01T08:27:24.452Z,12.04
2022-10-01T08:28:24.772Z,12.09
2022-10-01T08:29:24.873Z,12.05
2022-10-01T08:30:25.728Z,11.99
2022-10-01T08:31:25.791Z,11.96
2022-10-01T08:32:25.400Z,12.09
2022-10-01T08:33:25.544Z,12.05
2022-10-01T08:34:25.662Z,12.01
2022-10-01T08:35:25.821Z,12.08
2022-10-01T08:36:25.950Z,12.19
2022-10-01T08:37:26.084Z,12.11
2022-10-01T08:38:26.735Z,12.06
2022-10-01T08:39:26.359Z,12.04
2022-10-01T08:40:26.506Z,12.06
2022-10-01T08:41:27.229Z,12.09
2022-10-01T08:42:26.864Z,12.23
2022-10-01T08:43:27.017Z,12.08
2022-10-01T08:44:27.163Z,12.06
2022-10-01T08:45:27.344Z,12.16
2022-10-01T08:46:27.582Z,12.23
2022-10-01T08:47:27.736Z,12.45
2022-10-01T08:48:27.904Z,12.48
2022-10-01T08:49:28.082Z,12.56
2022-10-01T08:50:28.238Z,12.63
2022-10-01T08:51:28.403Z,12.69
2022-10-01T08:52:28.558Z,12.62
2022-10-01T08:53:28.706Z,12.64
2022-10-01T08:54:28.880Z,12.74
2022-10-01T08:55:29.734Z,12.75
2022-10-01T08:56:29.232Z,12.81
2022-10-01T08:57:29.378Z,12.93
2022-10-01T08:58:30.239Z,13.00
2022-10-01T08:59:29.747Z,13.00
2022-10-01T09:00:29.879Z,12.96
2022-10-01T09:01:30.331Z,12.99
2022-10-01T09:02:30.212Z,13.00
2022-10-01T09:03:30.351Z,13.00
2022-10-01T09:04:31.276Z,13.00
2022-10-01T09:05:31.233Z,13.03
2022-10-01T09:06:30.866Z,13.04
2022-10-01T09:07:31.019Z,13.07
2022-10-01T09:08:31.149Z,12.97
2022-10-01T09:09:31.268Z,12.99
2022-10-01T09:10:31.410Z,12.93
2022-10-01T09:11:31.855Z,13.11
2022-10-01T09:12:32.243Z,12.99
2022-10-01T09:13:31.982Z,13.06
2022-10-01T09:14:32.104Z,13.09
2022-10-01T09:15:32.736Z,13.11
2022-10-01T09:16:33.557Z,13.17
2022-10-01T09:17:32.592Z,13.11
2022-10-01T09:18:33.235Z,13.12
2022-10-01T09:19:32.850Z,13.18
2022-10-01T09:20:33.742Z,13.17
2022-10-01T09:21:33.560Z,13.25
2022-10-01T09:22:33.427Z,13.27
2022-10-01T09:23:33.568Z,13.27
2022-10-01T09:24:33.806Z,13.30
2022-10-01T09:25:34.053Z,13.40
2022-10-01T09:26:34.203Z,13.49
2022-10-01T09:27:34.757Z,13.63
2022-10-01T09:28:35.239Z,13.95
2022-10-01T09:29:35.741Z,14.09
2022-10-01T09:30:34.974Z,14.37
2022-10-01T09:31:35.420Z,14.50
2022-10-01T09:32:35.261Z,14.29
2022-10-01T09:33:36.244Z,14.43
2022-10-01T09:34:36.244Z,14.43
2022-10-01T09:35:35.762Z,14.34
2022-10-01T09:36:36.254Z,14.17
2022-10-01T09:37:36.126Z,14.31
2022-10-01T09:38:36.264Z,14.17
2022-10-01T09:39:36.379Z,14.09
2022-10-01T09:40:36.625Z,14.19
2022-10-01T09:41:37.079Z,13.95
2022-10-01T09:42:36.919Z,13.99
2022-10-01T09:43:37.072Z,13.92
2022-10-01T09:44:37.180Z,13.81
2022-10-01T09:45:37.324Z,13.89
2022-10-01T09:46:37.528Z,13.79
2022-10-01T09:47:37.637Z,13.83
2022-10-01T09:48:37.766Z,14.09
2022-10-01T09:49:38.755Z,14.19
2022-10-01T09:50:38.212Z,14.43
2022-10-01T09:51:40.712Z,14.64
2022-10-01T09:52:39.649Z,14.98
2022-10-01T09:53:38.866Z,15.08
2022-10-01T09:54:39.771Z,15.21
2022-10-01T09:55:39.126Z,15.33
2022-10-01T09:56:39.287Z,15.48
2022-10-01T09:57:40.255Z,15.41
2022-10-01T09:58:39.620Z,15.52
2022-10-01T09:59:39.765Z,15.49
2022-10-01T10:00:39.902Z,15.30
2022-10-01T10:01:40.108Z,15.13
2022-10-01T10:02:43.376Z,14.87
2022-10-01T10:03:41.355Z,14.78
2022-10-01T10:04:40.520Z,14.74
2022-10-01T10:05:40.663Z,14.78
2022-10-01T10:06:40.845Z,14.84
2022-10-01T10:07:41.069Z,14.75
2022-10-01T10:08:41.771Z,14.68
2022-10-01T10:09:42.257Z,14.74
2022-10-01T10:10:41.664Z,14.60
2022-10-01T10:11:41.881Z,14.56
2022-10-01T10:12:42.076Z,14.65
2022-10-01T10:13:42.286Z,14.50
2022-10-01T10:14:42.767Z,14.53
2022-10-01T10:15:42.603Z,14.46
2022-10-01T10:16:42.725Z,14.38
2022-10-01T10:17:42.891Z,14.35
2022-10-01T10:18:43.762Z,14.37
2022-10-01T10:19:43.289Z,14.21
2022-10-01T10:20:44.255Z,14.13
2022-10-01T10:21:43.655Z,14.25
2022-10-01T10:22:43.840Z,14.24
2022-10-01T10:23:44.014Z,14.20
2022-10-01T10:24:44.229Z,14.19
2022-10-01T10:25:44.384Z,14.21
2022-10-01T10:26:45.260Z,14.19
2022-10-01T10:27:45.810Z,14.19
2022-10-01T10:28:45.050Z,14.28
2022-10-01T10:29:46.280Z,14.17
2022-10-01T10:30:45.326Z,14.21
2022-10-01T10:31:46.327Z,14.14
2022-10-01T10:32:45.655Z,14.07
2022-10-01T10:33:46.769Z,13.96
2022-10-01T10:34:46.063Z,13.95
2022-10-01T10:35:46.249Z,14.01
2022-10-01T10:36:46.425Z,13.95
2022-10-01T10:37:46.608Z,13.84
2022-10-01T10:38:46.786Z,13.76
2022-10-01T10:39:46.963Z,13.76
2022-10-01T10:40:47.759Z,13.73
2022-10-01T10:41:47.295Z,13.56
2022-10-01T10:42:47.820Z,13.61
2022-10-01T10:43:48.260Z,13.49
2022-10-01T10:44:48.776Z,13.43
2022-10-01T10:45:47.900Z,13.46
2022-10-01T10:46:48.149Z,13.40
2022-10-01T10:47:48.282Z,13.44
2022-10-01T10:48:48.382Z,13.41
2022-10-01T10:49:48.582Z,13.37
2022-10-01T10:50:48.766Z,13.37
2022-10-01T10:51:48.988Z,13.37
2022-10-01T10:52:49.157Z,13.30
2022-10-01T10:53:50.270Z,13.22
2022-10-01T10:54:49.550Z,13.29
2022-10-01T10:55:49.727Z,13.25
2022-10-01T10:56:49.923Z,13.32
2022-10-01T10:57:53.324Z,13.44
2022-10-01T10:58:51.243Z,13.49
2022-10-01T10:59:51.270Z,13.43
2022-10-01T11:00:50.583Z,13.56
2022-10-01T11:01:50.881Z,13.62
2022-10-01T11:02:51.766Z,13.69
2022-10-01T11:03:51.190Z,13.83
2022-10-01T11:04:51.380Z,14.06
2022-10-01T11:05:51.603Z,14.17
2022-10-01T11:06:51.783Z,14.13
2022-10-01T11:07:52.001Z,14.13
2022-10-01T11:08:52.204Z,14.35
2022-10-01T11:09:52.365Z,14.32
2022-10-01T11:10:53.288Z,14.71
2022-10-01T11:11:52.660Z,14.71
2022-10-01T11:12:53.289Z,14.94
2022-10-01T11:13:53.057Z,14.95
2022-10-01T11:14:53.216Z,15.24
2022-10-01T11:15:53.421Z,15.36
2022-10-01T11:16:53.467Z,15.41
2022-10-01T11:17:54.273Z,15.46
2022-10-01T11:18:54.287Z,15.56
2022-10-01T11:19:53.908Z,15.59
2022-10-01T11:20:54.046Z,15.70
2022-10-01T11:21:54.194Z,15.60
2022-10-01T11:22:54.320Z,15.54
2022-10-01T11:23:54.470Z,15.51
2022-10-01T11:24:54.589Z,15.54
2022-10-01T11:25:54.708Z,15.43
2022-10-01T11:26:54.829Z,15.41
2022-10-01T11:27:55.331Z,15.27
2022-10-01T11:28:55.095Z,15.23
2022-10-01T11:29:56.280Z,15.24
2022-10-01T11:30:56.289Z,15.13
2022-10-01T11:31:55.653Z,15.33
2022-10-01T11:32:55.793Z,15.42
2022-10-01T11:33:56.778Z,15.31
2022-10-01T11:34:56.776Z,15.30
2022-10-01T11:35:56.267Z,15.31
2022-10-01T11:36:56.799Z,15.31
2022-10-01T11:37:56.546Z,15.39
2022-10-01T11:38:56.671Z,15.48
2022-10-01T11:39:57.805Z,15.48
2022-10-01T11:40:57.781Z,15.70
2022-10-01T11:41:57.158Z,16.04
2022-10-01T11:42:57.311Z,16.03
2022-10-01T11:43:57.452Z,15.94
2022-10-01T11:45:00.662Z,15.96
2022-10-01T11:45:59.822Z,15.86
2022-10-01T11:46:58.007Z,15.81
2022-10-01T11:47:58.102Z,15.94
2022-10-01T11:48:58.223Z,16.04
2022-10-01T11:49:58.377Z,16.06
2022-10-01T11:50:58.522Z,16.01
2022-10-01T11:51:58.658Z,16.01
2022-10-01T11:52:59.299Z,15.99
2022-10-01T11:53:59.054Z,16.20
2022-10-01T11:54:59.783Z,16.16
2022-10-01T11:55:59.419Z,16.37
2022-10-01T11:56:59.572Z,16.31
2022-10-01T11:57:59.751Z,16.37
2022-10-01T11:59:00.787Z,16.04
2022-10-01T12:00:00.077Z,15.99
2022-10-01T12:01:00.794Z,16.06
2022-10-01T12:02:00.486Z,16.04
2022-10-01T12:03:00.647Z,16.27
2022-10-01T12:04:00.776Z,16.50
2022-10-01T12:05:00.924Z,16.58
2022-10-01T12:06:01.788Z,16.77
2022-10-01T12:07:01.284Z,16.90
2022-10-01T12:08:01.442Z,16.99
2022-10-01T12:09:01.552Z,17.10
2022-10-01T12:10:01.705Z,17.08
2022-10-01T12:11:02.784Z,17.17
2022-10-01T12:12:03.034Z,17.20
2022-10-01T12:13:02.309Z,17.23
2022-10-01T12:14:02.421Z,17.15
2022-10-01T12:15:06.760Z,17.26
2022-10-01T12:16:03.758Z,17.47
2022-10-01T12:17:03.800Z,17.29
2022-10-01T12:18:03.831Z,17.32
2022-10-01T12:19:03.302Z,16.99
2022-10-01T12:20:03.365Z,16.99
2022-10-01T12:21:03.493Z,16.96
2022-10-01T12:22:03.735Z,16.90
2022-10-01T12:23:04.792Z,16.89
2022-10-01T12:24:04.018Z,16.62
2022-10-01T12:25:04.227Z,16.62
2022-10-01T12:26:05.304Z,16.73
2022-10-01T12:27:04.811Z,16.98
2022-10-01T12:28:04.725Z,17.23
2022-10-01T12:29:04.910Z,17.29
2022-10-01T12:30:05.050Z,17.06
2022-10-01T12:31:05.271Z,16.78
2022-10-01T12:32:05.334Z,16.63
2022-10-01T12:33:05.473Z,16.37
2022-10-01T12:34:05.636Z,16.35
2022-10-01T12:35:05.795Z,16.20
2022-10-01T12:36:05.972Z,16.03
2022-10-01T12:37:06.100Z,15.93
2022-10-01T12:38:06.272Z,15.88
2022-10-01T12:39:06.452Z,15.78
2022-10-01T12:40:06.605Z,15.61
2022-10-01T12:41:06.772Z,15.59
2022-10-01T12:42:06.939Z,15.51
2022-10-01T12:43:07.311Z,15.52
2022-10-01T12:44:07.801Z,15.51
2022-10-01T12:45:08.323Z,15.49
2022-10-01T12:46:08.357Z,15.45
2022-10-01T12:47:07.793Z,15.52
2022-10-01T12:48:08.821Z,15.46
2022-10-01T12:49:08.071Z,15.60
2022-10-01T12:50:08.236Z,15.57
2022-10-01T12:51:08.418Z,15.60
2022-10-01T12:52:09.317Z,15.60
2022-10-01T12:53:08.692Z,15.66
2022-10-01T12:54:13.262Z,15.56
2022-10-01T12:55:10.022Z,15.56